PRM4211 CYYZ-CYHZ
Flight info
| Callsign | PRM4211 |
|---|---|
| Flight time | 1h 35m |
| Altitude | 35000 |
| Route | DEDKI5 OLABA Q951 TALNO Q929 TOXAL DCT EBONY FUNDY5 |
| Aircraft | B742/H-SDFHIRWXY/L |
Departure
| Time | 2026-05-04 22:35 |
|---|---|
| Airport | Toronto Pearson International Airport (CYYZ) |
Arrival
| Time | 2026-05-05 00:11 |
|---|---|
| Airport | Halifax / Stanfield International Airport (CYHZ) |
| Time | Latitude | Longitude | Altitude | Speed | Heading |
|---|---|---|---|---|---|
| 2026-05-04 22:02 | 43.67943 | -79.63124 | 554 ft | 0 kts | 316° |
| 2026-05-04 22:20 | 43.67940 | -79.63120 | 553 ft | 2 kts | 318° |
| 2026-05-04 22:21 | 43.67928 | -79.63107 | 553 ft | 2 kts | 318° |
| 2026-05-04 22:21 | 43.67918 | -79.63093 | 553 ft | 2 kts | 320° |
| 2026-05-04 22:21 | 43.67904 | -79.63084 | 553 ft | 2 kts | 344° |
| 2026-05-04 22:21 | 43.67890 | -79.63081 | 553 ft | 2 kts | 5° |
| 2026-05-04 22:22 | 43.67875 | -79.63087 | 553 ft | 2 kts | 25° |
| 2026-05-04 22:22 | 43.67863 | -79.63098 | 553 ft | 1 kts | 44° |
| 2026-05-04 22:22 | 43.67861 | -79.63101 | 553 ft | 0 kts | 46° |
| 2026-05-04 22:26 | 43.67862 | -79.63101 | 553 ft | 0 kts | 46° |
| 2026-05-04 22:26 | 43.67870 | -79.63088 | 553 ft | 4 kts | 46° |
| 2026-05-04 22:27 | 43.67901 | -79.63045 | 553 ft | 6 kts | 46° |
| 2026-05-04 22:27 | 43.67932 | -79.63000 | 553 ft | 6 kts | 45° |
| 2026-05-04 22:27 | 43.67972 | -79.62972 | 553 ft | 6 kts | 356° |
| 2026-05-04 22:27 | 43.68019 | -79.62997 | 553 ft | 7 kts | 324° |
| 2026-05-04 22:28 | 43.68057 | -79.63045 | 553 ft | 7 kts | 316° |
| 2026-05-04 22:28 | 43.68097 | -79.63096 | 553 ft | 7 kts | 317° |
| 2026-05-04 22:28 | 43.68137 | -79.63147 | 553 ft | 7 kts | 316° |
| 2026-05-04 22:28 | 43.68176 | -79.63198 | 554 ft | 7 kts | 316° |
| 2026-05-04 22:29 | 43.68209 | -79.63244 | 554 ft | 7 kts | 315° |
| 2026-05-04 22:29 | 43.68248 | -79.63296 | 555 ft | 8 kts | 314° |
| 2026-05-04 22:29 | 43.68290 | -79.63355 | 556 ft | 8 kts | 315° |
| 2026-05-04 22:29 | 43.68337 | -79.63419 | 557 ft | 9 kts | 314° |
| 2026-05-04 22:30 | 43.68391 | -79.63490 | 557 ft | 11 kts | 317° |
| 2026-05-04 22:30 | 43.68455 | -79.63569 | 557 ft | 13 kts | 319° |
| 2026-05-04 22:30 | 43.68528 | -79.63657 | 557 ft | 14 kts | 317° |
| 2026-05-04 22:30 | 43.68604 | -79.63757 | 557 ft | 15 kts | 315° |
| 2026-05-04 22:31 | 43.68687 | -79.63867 | 557 ft | 17 kts | 316° |
| 2026-05-04 22:31 | 43.68773 | -79.63969 | 557 ft | 14 kts | 342° |
| 2026-05-04 22:31 | 43.68848 | -79.63924 | 559 ft | 11 kts | 45° |
| 2026-05-04 22:31 | 43.68906 | -79.63841 | 560 ft | 13 kts | 46° |
| 2026-05-04 22:32 | 43.68984 | -79.63728 | 560 ft | 18 kts | 47° |
| 2026-05-04 22:32 | 43.69071 | -79.63598 | 560 ft | 17 kts | 47° |
| 2026-05-04 22:32 | 43.69149 | -79.63479 | 560 ft | 16 kts | 45° |
| 2026-05-04 22:32 | 43.69242 | -79.63416 | 559 ft | 14 kts | 3° |
| 2026-05-04 22:33 | 43.69309 | -79.63419 | 559 ft | 6 kts | 352° |
| 2026-05-04 22:33 | 43.69347 | -79.63433 | 559 ft | 5 kts | 334° |
| 2026-05-04 22:33 | 43.69376 | -79.63458 | 559 ft | 5 kts | 324° |
| 2026-05-04 22:33 | 43.69397 | -79.63492 | 559 ft | 3 kts | 288° |
| 2026-05-04 22:34 | 43.69395 | -79.63520 | 560 ft | 2 kts | 244° |
| 2026-05-04 22:34 | 43.69393 | -79.63526 | 560 ft | 0 kts | 234° |
| 2026-05-04 22:34 | 43.69368 | -79.63568 | 560 ft | 27 kts | 228° |
| 2026-05-04 22:34 | 43.69060 | -79.64016 | 560 ft | 98 kts | 226° |
| 2026-05-04 22:35 | 43.68440 | -79.64911 | 588 ft | 153 kts | 226° |
| 2026-05-04 22:35 | 43.67703 | -79.66020 | 1133 ft | 161 kts | 227° |
| 2026-05-04 22:35 | 43.66976 | -79.67246 | 1695 ft | 173 kts | 231° |
| 2026-05-04 22:35 | 43.66248 | -79.68604 | 2083 ft | 181 kts | 232° |
| 2026-05-04 22:36 | 43.65463 | -79.70078 | 2259 ft | 201 kts | 232° |
| 2026-05-04 22:36 | 43.64587 | -79.71699 | 2446 ft | 220 kts | 232° |
| 2026-05-04 22:36 | 43.63625 | -79.73463 | 2637 ft | 234 kts | 232° |
| 2026-05-04 22:36 | 43.62609 | -79.75326 | 2973 ft | 250 kts | 232° |
| 2026-05-04 22:37 | 43.61562 | -79.77240 | 3689 ft | 253 kts | 232° |
| 2026-05-04 22:37 | 43.60482 | -79.79197 | 4224 ft | 264 kts | 232° |
| 2026-05-04 22:37 | 43.59314 | -79.81255 | 4656 ft | 279 kts | 227° |
| 2026-05-04 22:37 | 43.57765 | -79.82856 | 5388 ft | 283 kts | 206° |
| 2026-05-04 22:38 | 43.55913 | -79.83559 | 6390 ft | 279 kts | 187° |
| 2026-05-04 22:38 | 43.54018 | -79.83222 | 7121 ft | 286 kts | 162° |
| 2026-05-04 22:38 | 43.52344 | -79.81574 | 7662 ft | 304 kts | 135° |
| 2026-05-04 22:38 | 43.51211 | -79.79082 | 8274 ft | 316 kts | 116° |
| 2026-05-04 22:39 | 43.50684 | -79.76117 | 8842 ft | 328 kts | 97° |
| 2026-05-04 22:39 | 43.50834 | -79.72958 | 9465 ft | 336 kts | 80° |
| 2026-05-04 22:39 | 43.51318 | -79.69793 | 10091 ft | 339 kts | 83° |
| 2026-05-04 22:39 | 43.51421 | -79.66528 | 10460 ft | 350 kts | 97° |
| 2026-05-04 22:40 | 43.51060 | -79.63150 | 10617 ft | 369 kts | 104° |
| 2026-05-04 22:40 | 43.50588 | -79.59587 | 10774 ft | 392 kts | 96° |
| 2026-05-04 22:40 | 43.50705 | -79.55729 | 10939 ft | 415 kts | 81° |
| 2026-05-04 22:40 | 43.51387 | -79.51777 | 11303 ft | 428 kts | 74° |
| 2026-05-04 22:41 | 43.52228 | -79.47873 | 12161 ft | 427 kts | 73° |
| 2026-05-04 22:41 | 43.53066 | -79.43948 | 12856 ft | 429 kts | 74° |
| 2026-05-04 22:41 | 43.53916 | -79.40015 | 13480 ft | 433 kts | 72° |
| 2026-05-04 22:41 | 43.54819 | -79.36082 | 14104 ft | 437 kts | 72° |
| 2026-05-04 22:42 | 43.55736 | -79.32080 | 14718 ft | 440 kts | 73° |
| 2026-05-04 22:42 | 43.56639 | -79.28013 | 15317 ft | 444 kts | 73° |
| 2026-05-04 22:42 | 43.57546 | -79.23903 | 15899 ft | 448 kts | 73° |
| 2026-05-04 22:42 | 43.58456 | -79.19797 | 16471 ft | 452 kts | 73° |
| 2026-05-04 22:43 | 43.59370 | -79.15681 | 17033 ft | 456 kts | 72° |
| 2026-05-04 22:43 | 43.60300 | -79.11497 | 17585 ft | 460 kts | 72° |
| 2026-05-04 22:43 | 43.61247 | -79.07240 | 18134 ft | 464 kts | 72° |
| 2026-05-04 22:43 | 43.62191 | -79.02984 | 18672 ft | 468 kts | 72° |
| 2026-05-04 22:44 | 43.63144 | -78.98683 | 19206 ft | 472 kts | 72° |
| 2026-05-04 22:44 | 43.64104 | -78.94344 | 19725 ft | 475 kts | 72° |
| 2026-05-04 22:44 | 43.65068 | -78.89980 | 20234 ft | 479 kts | 72° |
| 2026-05-04 22:44 | 43.66039 | -78.85568 | 20734 ft | 483 kts | 72° |
| 2026-05-04 22:45 | 43.67010 | -78.81149 | 21222 ft | 486 kts | 72° |
| 2026-05-04 22:45 | 43.69003 | -78.72123 | 22174 ft | 493 kts | 70° |
| 2026-05-04 22:45 | 43.70200 | -78.67705 | 22625 ft | 495 kts | 65° |
| 2026-05-04 22:46 | 43.71551 | -78.63318 | 23078 ft | 497 kts | 64° |
| 2026-05-04 22:46 | 43.72953 | -78.58918 | 23512 ft | 500 kts | 63° |
| 2026-05-04 22:46 | 43.74351 | -78.54525 | 23932 ft | 503 kts | 63° |
| 2026-05-04 22:46 | 43.75742 | -78.50104 | 24340 ft | 506 kts | 64° |
| 2026-05-04 22:47 | 43.77146 | -78.45592 | 24743 ft | 509 kts | 64° |
| 2026-05-04 22:47 | 43.78534 | -78.41092 | 25126 ft | 511 kts | 64° |
| 2026-05-04 22:47 | 43.79931 | -78.36539 | 25501 ft | 514 kts | 64° |
| 2026-05-04 22:47 | 43.81300 | -78.32039 | 25846 ft | 516 kts | 65° |
| 2026-05-04 22:48 | 43.82679 | -78.27419 | 26188 ft | 519 kts | 65° |
| 2026-05-04 22:48 | 43.84071 | -78.22747 | 26529 ft | 521 kts | 65° |
| 2026-05-04 22:48 | 43.85455 | -78.18125 | 26861 ft | 523 kts | 64° |
| 2026-05-04 22:48 | 43.86861 | -78.13458 | 27188 ft | 525 kts | 64° |
| 2026-05-04 22:49 | 43.88258 | -78.08833 | 27503 ft | 526 kts | 64° |
| 2026-05-04 22:49 | 43.89678 | -78.04129 | 27806 ft | 528 kts | 64° |
| 2026-05-04 22:49 | 43.91083 | -77.99474 | 28101 ft | 530 kts | 64° |
| 2026-05-04 22:49 | 43.92510 | -77.94738 | 28397 ft | 532 kts | 64° |
| 2026-05-04 22:50 | 43.93940 | -77.89985 | 28688 ft | 534 kts | 64° |
| 2026-05-04 22:50 | 43.95370 | -77.85221 | 28962 ft | 536 kts | 64° |
| 2026-05-04 22:50 | 43.96810 | -77.80417 | 29232 ft | 538 kts | 64° |
| 2026-05-04 22:50 | 43.98230 | -77.75668 | 29493 ft | 540 kts | 63° |
| 2026-05-04 22:51 | 43.99681 | -77.70804 | 29757 ft | 542 kts | 63° |
| 2026-05-04 22:51 | 44.01120 | -77.65973 | 30030 ft | 543 kts | 63° |
| 2026-05-04 22:51 | 44.02557 | -77.61142 | 30299 ft | 545 kts | 63° |
| 2026-05-04 22:51 | 44.04008 | -77.56250 | 30566 ft | 547 kts | 63° |
| 2026-05-04 22:52 | 44.05451 | -77.51379 | 30828 ft | 548 kts | 63° |
| 2026-05-04 22:52 | 44.06907 | -77.46452 | 31102 ft | 549 kts | 63° |
| 2026-05-04 22:52 | 44.08351 | -77.41615 | 31463 ft | 546 kts | 62° |
| 2026-05-04 22:52 | 44.09893 | -77.36820 | 31841 ft | 544 kts | 60° |
| 2026-05-04 22:53 | 44.11489 | -77.32030 | 32196 ft | 543 kts | 61° |
| 2026-05-04 22:53 | 44.13048 | -77.27317 | 32545 ft | 542 kts | 61° |
| 2026-05-04 22:53 | 44.14619 | -77.22543 | 32926 ft | 540 kts | 61° |
| 2026-05-04 22:53 | 44.16187 | -77.17770 | 33317 ft | 539 kts | 60° |
| 2026-05-04 22:54 | 44.17725 | -77.13089 | 33695 ft | 537 kts | 60° |
| 2026-05-04 22:54 | 44.19274 | -77.08371 | 34072 ft | 536 kts | 60° |
| 2026-05-04 22:54 | 44.20838 | -77.03603 | 34450 ft | 535 kts | 60° |
| 2026-05-04 22:54 | 44.22363 | -76.98949 | 34812 ft | 531 kts | 60° |
| 2026-05-04 22:55 | 44.23906 | -76.94230 | 35076 ft | 530 kts | 60° |
| 2026-05-04 22:55 | 44.25416 | -76.89613 | 35150 ft | 533 kts | 60° |
| 2026-05-04 22:55 | 44.28482 | -76.80208 | 35180 ft | 533 kts | 59° |
| 2026-05-04 22:56 | 44.31518 | -76.70844 | 35082 ft | 527 kts | 59° |
| 2026-05-04 22:56 | 44.34530 | -76.61534 | 35054 ft | 528 kts | 59° |
| 2026-05-04 22:57 | 44.37564 | -76.52122 | 35076 ft | 529 kts | 59° |
| 2026-05-04 22:57 | 44.40563 | -76.42782 | 35083 ft | 529 kts | 59° |
| 2026-05-04 22:58 | 44.43562 | -76.33399 | 35087 ft | 529 kts | 60° |
| 2026-05-04 22:58 | 44.46490 | -76.24030 | 35089 ft | 529 kts | 60° |
| 2026-05-04 22:59 | 44.49437 | -76.14619 | 35083 ft | 528 kts | 60° |
| 2026-05-04 22:59 | 44.52403 | -76.05185 | 35079 ft | 528 kts | 60° |
| 2026-05-04 23:00 | 44.55365 | -75.95762 | 35076 ft | 528 kts | 60° |
| 2026-05-04 23:00 | 44.58304 | -75.86379 | 35073 ft | 528 kts | 60° |
| 2026-05-04 23:01 | 44.61256 | -75.76920 | 35074 ft | 528 kts | 60° |
| 2026-05-04 23:01 | 44.64165 | -75.67561 | 35072 ft | 527 kts | 60° |
| 2026-05-04 23:02 | 44.66942 | -75.58038 | 35064 ft | 528 kts | 63° |
| 2026-05-04 23:02 | 44.69552 | -75.48349 | 35059 ft | 529 kts | 63° |
| 2026-05-04 23:03 | 44.72147 | -75.38711 | 35058 ft | 529 kts | 63° |
| 2026-05-04 23:03 | 44.74874 | -75.29104 | 35058 ft | 528 kts | 62° |
| 2026-05-04 23:04 | 44.77309 | -75.20773 | 35060 ft | 528 kts | 62° |
| 2026-05-04 23:04 | 44.80103 | -75.11259 | 35063 ft | 527 kts | 61° |
| 2026-05-04 23:05 | 44.82888 | -75.01760 | 35066 ft | 527 kts | 61° |
| 2026-05-04 23:05 | 44.85678 | -74.92201 | 35069 ft | 527 kts | 61° |
| 2026-05-04 23:06 | 44.88446 | -74.82680 | 35071 ft | 527 kts | 61° |
| 2026-05-04 23:06 | 44.91197 | -74.73162 | 35072 ft | 527 kts | 62° |
| 2026-05-04 23:07 | 44.93531 | -74.63332 | 35079 ft | 532 kts | 67° |
| 2026-05-04 23:07 | 44.94614 | -74.58262 | 34879 ft | 536 kts | 67° |
| 2026-05-04 23:07 | 44.95678 | -74.53228 | 34759 ft | 534 kts | 67° |
| 2026-05-04 23:08 | 44.97798 | -74.43289 | 34689 ft | 531 kts | 66° |
| 2026-05-04 23:08 | 44.99921 | -74.33316 | 34672 ft | 533 kts | 69° |
| 2026-05-04 23:09 | 45.01792 | -74.23103 | 34704 ft | 537 kts | 70° |
| 2026-05-04 23:09 | 45.03621 | -74.12901 | 34718 ft | 536 kts | 70° |
| 2026-05-04 23:10 | 45.05486 | -74.02742 | 34717 ft | 535 kts | 70° |
| 2026-05-04 23:10 | 45.07344 | -73.92611 | 34714 ft | 536 kts | 72° |
| 2026-05-04 23:11 | 45.08234 | -73.82115 | 34711 ft | 545 kts | 82° |
| 2026-05-04 23:11 | 45.08587 | -73.71400 | 34704 ft | 545 kts | 83° |
| 2026-05-04 23:12 | 45.08929 | -73.60741 | 34701 ft | 544 kts | 82° |
| 2026-05-04 23:12 | 45.09313 | -73.50041 | 34704 ft | 544 kts | 82° |
| 2026-05-04 23:13 | 45.09684 | -73.39415 | 34707 ft | 544 kts | 82° |
| 2026-05-04 23:13 | 45.10027 | -73.28751 | 34708 ft | 545 kts | 83° |
| 2026-05-04 23:14 | 45.10319 | -73.18154 | 34708 ft | 545 kts | 83° |
| 2026-05-04 23:14 | 45.10638 | -73.07507 | 34711 ft | 545 kts | 83° |
| 2026-05-04 23:15 | 45.10970 | -72.96861 | 34713 ft | 545 kts | 83° |
| 2026-05-04 23:15 | 45.11296 | -72.86176 | 34717 ft | 545 kts | 83° |
| 2026-05-04 23:16 | 45.11613 | -72.75461 | 34721 ft | 545 kts | 83° |
| 2026-05-04 23:16 | 45.11917 | -72.64798 | 34726 ft | 545 kts | 83° |
| 2026-05-04 23:17 | 45.12212 | -72.54106 | 34732 ft | 544 kts | 83° |
| 2026-05-04 23:17 | 45.12496 | -72.43416 | 34739 ft | 545 kts | 83° |
| 2026-05-04 23:18 | 45.12769 | -72.32715 | 34739 ft | 545 kts | 84° |
| 2026-05-04 23:18 | 45.12977 | -72.21986 | 34741 ft | 546 kts | 84° |
| 2026-05-04 23:19 | 45.13196 | -72.11303 | 34746 ft | 546 kts | 84° |
| 2026-05-04 23:19 | 45.13436 | -72.00562 | 34752 ft | 546 kts | 84° |
| 2026-05-04 23:20 | 45.13673 | -71.89848 | 34731 ft | 546 kts | 84° |
| 2026-05-04 23:20 | 45.13900 | -71.79086 | 34722 ft | 547 kts | 84° |
| 2026-05-04 23:21 | 45.14117 | -71.68323 | 34751 ft | 548 kts | 84° |
| 2026-05-04 23:21 | 45.14283 | -71.57475 | 34760 ft | 549 kts | 87° |
| 2026-05-04 23:22 | 45.13982 | -71.46713 | 34757 ft | 550 kts | 89° |
| 2026-05-04 23:22 | 45.13556 | -71.35889 | 34750 ft | 550 kts | 89° |
| 2026-05-04 23:23 | 45.13106 | -71.25135 | 34650 ft | 551 kts | 90° |
| 2026-05-04 23:23 | 45.12648 | -71.14287 | 34621 ft | 549 kts | 90° |
| 2026-05-04 23:24 | 45.12219 | -71.03543 | 34690 ft | 549 kts | 90° |
| 2026-05-04 23:24 | 45.11785 | -70.92785 | 34738 ft | 550 kts | 90° |
| 2026-05-04 23:25 | 45.11366 | -70.81943 | 34760 ft | 549 kts | 90° |
| 2026-05-04 23:25 | 45.10928 | -70.71214 | 34770 ft | 549 kts | 90° |
| 2026-05-04 23:26 | 45.10471 | -70.60459 | 34761 ft | 548 kts | 90° |
| 2026-05-04 23:26 | 45.10019 | -70.49705 | 34759 ft | 548 kts | 91° |
| 2026-05-04 23:27 | 45.09542 | -70.38921 | 34759 ft | 548 kts | 91° |
| 2026-05-04 23:27 | 45.09032 | -70.28204 | 34761 ft | 548 kts | 92° |
| 2026-05-04 23:28 | 45.08490 | -70.17459 | 34764 ft | 548 kts | 92° |
| 2026-05-04 23:28 | 45.07979 | -70.06672 | 34761 ft | 548 kts | 92° |
| 2026-05-04 23:29 | 45.07465 | -69.95936 | 34763 ft | 548 kts | 92° |
| 2026-05-04 23:29 | 45.06940 | -69.85235 | 34761 ft | 548 kts | 92° |
| 2026-05-04 23:30 | 45.06397 | -69.74513 | 34728 ft | 548 kts | 92° |
| 2026-05-04 23:30 | 45.05858 | -69.63711 | 34715 ft | 549 kts | 92° |
| 2026-05-04 23:31 | 45.05317 | -69.52993 | 34745 ft | 550 kts | 92° |
| 2026-05-04 23:31 | 45.04757 | -69.42162 | 34756 ft | 550 kts | 93° |
| 2026-05-04 23:32 | 45.04176 | -69.31424 | 34754 ft | 550 kts | 94° |
| 2026-05-04 23:32 | 45.03534 | -69.20618 | 34758 ft | 550 kts | 94° |
| 2026-05-04 23:33 | 45.02913 | -69.09892 | 34760 ft | 550 kts | 94° |
| 2026-05-04 23:33 | 45.02302 | -68.99124 | 34762 ft | 550 kts | 94° |
| 2026-05-04 23:34 | 45.01698 | -68.88435 | 34765 ft | 551 kts | 94° |
| 2026-05-04 23:34 | 45.01059 | -68.77737 | 34771 ft | 551 kts | 94° |
| 2026-05-04 23:35 | 45.00420 | -68.66950 | 34772 ft | 552 kts | 94° |
| 2026-05-04 23:35 | 44.99775 | -68.56117 | 34774 ft | 553 kts | 94° |
| 2026-05-04 23:36 | 44.99120 | -68.45335 | 34778 ft | 553 kts | 94° |
| 2026-05-04 23:36 | 44.98452 | -68.34534 | 34779 ft | 553 kts | 95° |
| 2026-05-04 23:37 | 44.97720 | -68.23696 | 34784 ft | 553 kts | 96° |
| 2026-05-04 23:37 | 44.96983 | -68.12823 | 34789 ft | 554 kts | 95° |
| 2026-05-04 23:38 | 44.96270 | -68.01954 | 34796 ft | 555 kts | 95° |
| 2026-05-04 23:38 | 44.95562 | -67.91156 | 34797 ft | 555 kts | 95° |
| 2026-05-04 23:39 | 44.94837 | -67.80253 | 34781 ft | 555 kts | 96° |
| 2026-05-04 23:39 | 44.94100 | -67.69350 | 34777 ft | 556 kts | 96° |
| 2026-05-04 23:40 | 44.93354 | -67.58480 | 34792 ft | 557 kts | 96° |
| 2026-05-04 23:40 | 44.92592 | -67.47531 | 34792 ft | 557 kts | 96° |
| 2026-05-04 23:41 | 44.91824 | -67.36659 | 34788 ft | 557 kts | 96° |
| 2026-05-04 23:41 | 44.91010 | -67.25809 | 34787 ft | 556 kts | 98° |
| 2026-05-04 23:42 | 44.90168 | -67.15009 | 34782 ft | 555 kts | 99° |
| 2026-05-04 23:42 | 44.89784 | -67.04120 | 34786 ft | 558 kts | 89° |
| 2026-05-04 23:43 | 44.90070 | -66.93181 | 34757 ft | 559 kts | 89° |
| 2026-05-04 23:43 | 44.90202 | -66.82303 | 34717 ft | 542 kts | 90° |
| 2026-05-04 23:44 | 44.90209 | -66.77048 | 34651 ft | 529 kts | 91° |
| 2026-05-04 23:44 | 44.90197 | -66.71915 | 34545 ft | 519 kts | 91° |
| 2026-05-04 23:44 | 44.90178 | -66.66876 | 34425 ft | 519 kts | 91° |
| 2026-05-04 23:44 | 44.90154 | -66.61751 | 34315 ft | 523 kts | 91° |
| 2026-05-04 23:45 | 44.90104 | -66.51452 | 34137 ft | 524 kts | 91° |
| 2026-05-04 23:45 | 44.90051 | -66.41190 | 33965 ft | 522 kts | 91° |
| 2026-05-04 23:46 | 44.89980 | -66.30968 | 33782 ft | 520 kts | 93° |
| 2026-05-04 23:46 | 44.89853 | -66.20799 | 33585 ft | 519 kts | 93° |
| 2026-05-04 23:47 | 44.89745 | -66.10603 | 33264 ft | 522 kts | 92° |
| 2026-05-04 23:47 | 44.89697 | -66.05462 | 32858 ft | 524 kts | 92° |
| 2026-05-04 23:47 | 44.89650 | -66.00334 | 32447 ft | 520 kts | 92° |
| 2026-05-04 23:48 | 44.89603 | -65.95297 | 32008 ft | 516 kts | 92° |
| 2026-05-04 23:48 | 44.89556 | -65.90304 | 31422 ft | 504 kts | 92° |
| 2026-05-04 23:48 | 44.89510 | -65.85427 | 30850 ft | 495 kts | 92° |
| 2026-05-04 23:48 | 44.89461 | -65.80591 | 30269 ft | 489 kts | 93° |
| 2026-05-04 23:49 | 44.89408 | -65.75829 | 29729 ft | 486 kts | 93° |
| 2026-05-04 23:49 | 44.89350 | -65.71036 | 29189 ft | 485 kts | 93° |
| 2026-05-04 23:49 | 44.89291 | -65.66336 | 28632 ft | 487 kts | 92° |
| 2026-05-04 23:49 | 44.89229 | -65.61600 | 28067 ft | 488 kts | 92° |
| 2026-05-04 23:50 | 44.89166 | -65.56805 | 27442 ft | 489 kts | 92° |
| 2026-05-04 23:50 | 44.89101 | -65.51986 | 26754 ft | 490 kts | 92° |
| 2026-05-04 23:50 | 44.89035 | -65.47217 | 26066 ft | 491 kts | 92° |
| 2026-05-04 23:50 | 44.88967 | -65.42373 | 25341 ft | 492 kts | 92° |
| 2026-05-04 23:51 | 44.88898 | -65.37566 | 24620 ft | 493 kts | 92° |
| 2026-05-04 23:51 | 44.88824 | -65.32787 | 23892 ft | 492 kts | 93° |
| 2026-05-04 23:51 | 44.88726 | -65.28020 | 23192 ft | 475 kts | 93° |
| 2026-05-04 23:51 | 44.88628 | -65.23459 | 22617 ft | 459 kts | 93° |
| 2026-05-04 23:52 | 44.88542 | -65.19050 | 22038 ft | 444 kts | 92° |
| 2026-05-04 23:52 | 44.88465 | -65.14779 | 21453 ft | 432 kts | 92° |
| 2026-05-04 23:52 | 44.88393 | -65.10611 | 20873 ft | 424 kts | 92° |
| 2026-05-04 23:52 | 44.88321 | -65.06499 | 20299 ft | 423 kts | 92° |
| 2026-05-04 23:53 | 44.88247 | -65.02352 | 19729 ft | 422 kts | 92° |
| 2026-05-04 23:53 | 44.88171 | -64.98225 | 19169 ft | 420 kts | 93° |
| 2026-05-04 23:53 | 44.88096 | -64.94158 | 18615 ft | 417 kts | 93° |
| 2026-05-04 23:53 | 44.88018 | -64.90080 | 18057 ft | 414 kts | 93° |
| 2026-05-04 23:54 | 44.87939 | -64.86036 | 17501 ft | 411 kts | 93° |
| 2026-05-04 23:54 | 44.87860 | -64.82067 | 16953 ft | 408 kts | 93° |
| 2026-05-04 23:54 | 44.87779 | -64.78058 | 16396 ft | 404 kts | 93° |
| 2026-05-04 23:54 | 44.87698 | -64.74140 | 15849 ft | 401 kts | 93° |
| 2026-05-04 23:55 | 44.87616 | -64.70213 | 15296 ft | 398 kts | 93° |
| 2026-05-04 23:55 | 44.87534 | -64.66354 | 14749 ft | 394 kts | 93° |
| 2026-05-04 23:55 | 44.87380 | -64.58755 | 13660 ft | 387 kts | 90° |
| 2026-05-04 23:56 | 44.87618 | -64.54999 | 13121 ft | 384 kts | 79° |
| 2026-05-04 23:56 | 44.88179 | -64.51356 | 12578 ft | 375 kts | 74° |
| 2026-05-04 23:56 | 44.88849 | -64.47832 | 12036 ft | 365 kts | 73° |
| 2026-05-04 23:56 | 44.89505 | -64.44469 | 11509 ft | 357 kts | 73° |
| 2026-05-04 23:57 | 44.90143 | -64.41119 | 10974 ft | 350 kts | 73° |
| 2026-05-04 23:57 | 44.90762 | -64.37816 | 10437 ft | 344 kts | 73° |
| 2026-05-04 23:57 | 44.91358 | -64.34606 | 9909 ft | 338 kts | 74° |
| 2026-05-04 23:57 | 44.91932 | -64.31428 | 9379 ft | 333 kts | 75° |
| 2026-05-04 23:58 | 44.92505 | -64.28249 | 8939 ft | 332 kts | 74° |
| 2026-05-04 23:58 | 44.93074 | -64.25134 | 8554 ft | 331 kts | 74° |
| 2026-05-04 23:58 | 44.93649 | -64.22006 | 8201 ft | 328 kts | 74° |
| 2026-05-04 23:58 | 44.94221 | -64.18900 | 8050 ft | 318 kts | 73° |
| 2026-05-04 23:59 | 44.94771 | -64.15925 | 8021 ft | 313 kts | 73° |
| 2026-05-04 23:59 | 44.95319 | -64.12962 | 8020 ft | 316 kts | 73° |
| 2026-05-04 23:59 | 44.95869 | -64.09968 | 8021 ft | 317 kts | 73° |
| 2026-05-04 23:59 | 44.96427 | -64.06921 | 8017 ft | 317 kts | 73° |
| 2026-05-05 00:00 | 44.96976 | -64.03916 | 8017 ft | 317 kts | 74° |
| 2026-05-05 00:00 | 44.97154 | -64.02948 | 8023 ft | 316 kts | 73° |
| 2026-05-05 00:00 | 44.98074 | -63.97894 | 8019 ft | 317 kts | 73° |
| 2026-05-05 00:00 | 44.98625 | -63.94873 | 8017 ft | 317 kts | 73° |
| 2026-05-05 00:01 | 44.99165 | -63.91895 | 8018 ft | 317 kts | 73° |
| 2026-05-05 00:01 | 44.99714 | -63.88874 | 8002 ft | 317 kts | 73° |
| 2026-05-05 00:01 | 45.00264 | -63.85859 | 7751 ft | 323 kts | 73° |
| 2026-05-05 00:01 | 45.00829 | -63.82761 | 7304 ft | 326 kts | 73° |
| 2026-05-05 00:02 | 45.01379 | -63.79662 | 6861 ft | 327 kts | 73° |
| 2026-05-05 00:02 | 45.01945 | -63.76508 | 6406 ft | 329 kts | 73° |
| 2026-05-05 00:02 | 45.02512 | -63.73354 | 5954 ft | 330 kts | 73° |
| 2026-05-05 00:02 | 45.03080 | -63.70210 | 5507 ft | 331 kts | 73° |
| 2026-05-05 00:03 | 45.03643 | -63.67061 | 5062 ft | 332 kts | 74° |
| 2026-05-05 00:03 | 45.04203 | -63.63924 | 4612 ft | 332 kts | 74° |
| 2026-05-05 00:03 | 45.04762 | -63.60794 | 4148 ft | 322 kts | 74° |
| 2026-05-05 00:03 | 45.05298 | -63.57789 | 3766 ft | 310 kts | 74° |
| 2026-05-05 00:04 | 45.05822 | -63.54871 | 3393 ft | 301 kts | 74° |
| 2026-05-05 00:04 | 45.06316 | -63.52084 | 3134 ft | 288 kts | 75° |
| 2026-05-05 00:04 | 45.06786 | -63.49433 | 3047 ft | 267 kts | 76° |
| 2026-05-05 00:04 | 45.06891 | -63.46978 | 3039 ft | 233 kts | 111° |
| 2026-05-05 00:05 | 45.06226 | -63.45039 | 3025 ft | 215 kts | 128° |
| 2026-05-05 00:05 | 45.05485 | -63.43238 | 3021 ft | 208 kts | 130° |
| 2026-05-05 00:05 | 45.04711 | -63.41527 | 3025 ft | 206 kts | 132° |
| 2026-05-05 00:05 | 45.03909 | -63.39851 | 3024 ft | 204 kts | 133° |
| 2026-05-05 00:06 | 45.02942 | -63.38523 | 2854 ft | 186 kts | 172° |
| 2026-05-05 00:06 | 45.01781 | -63.38427 | 2791 ft | 158 kts | 202° |
| 2026-05-05 00:06 | 45.00776 | -63.38916 | 2770 ft | 149 kts | 215° |
| 2026-05-05 00:06 | 44.99870 | -63.39624 | 2795 ft | 150 kts | 219° |
| 2026-05-05 00:07 | 44.99010 | -63.40406 | 2931 ft | 146 kts | 221° |
| 2026-05-05 00:07 | 44.98172 | -63.41222 | 2771 ft | 147 kts | 221° |
| 2026-05-05 00:07 | 44.97338 | -63.42045 | 2562 ft | 144 kts | 222° |
| 2026-05-05 00:07 | 44.96513 | -63.42866 | 2372 ft | 144 kts | 222° |
| 2026-05-05 00:08 | 44.95699 | -63.43675 | 2160 ft | 143 kts | 223° |
| 2026-05-05 00:08 | 44.94892 | -63.44477 | 1987 ft | 142 kts | 223° |
| 2026-05-05 00:08 | 44.94085 | -63.45280 | 1791 ft | 142 kts | 223° |
| 2026-05-05 00:08 | 44.93277 | -63.46079 | 1586 ft | 138 kts | 223° |
| 2026-05-05 00:09 | 44.92509 | -63.46841 | 1368 ft | 135 kts | 223° |
| 2026-05-05 00:09 | 44.91756 | -63.47595 | 1191 ft | 133 kts | 220° |
| 2026-05-05 00:09 | 44.90988 | -63.48348 | 1066 ft | 134 kts | 220° |
| 2026-05-05 00:09 | 44.90209 | -63.49112 | 862 ft | 140 kts | 220° |
| 2026-05-05 00:10 | 44.89395 | -63.49928 | 664 ft | 143 kts | 217° |
| 2026-05-05 00:10 | 44.88579 | -63.50721 | 508 ft | 141 kts | 220° |
| 2026-05-05 00:10 | 44.87818 | -63.51461 | 463 ft | 124 kts | 219° |
| 2026-05-05 00:10 | 44.87281 | -63.52032 | 470 ft | 61 kts | 215° |
| 2026-05-05 00:11 | 44.86990 | -63.52324 | 466 ft | 36 kts | 216° |
| 2026-05-05 00:11 | 44.86921 | -63.52490 | 464 ft | 7 kts | 296° |
| 2026-05-05 00:11 | 44.86932 | -63.52506 | 464 ft | 0 kts | 327° |
| 2026-05-05 00:12 | 44.86935 | -63.52508 | 464 ft | 2 kts | 330° |
| 2026-05-05 00:12 | 44.86968 | -63.52524 | 465 ft | 7 kts | 345° |
| 2026-05-05 00:13 | 44.87019 | -63.52569 | 467 ft | 9 kts | 283° |
| 2026-05-05 00:13 | 44.86972 | -63.52658 | 465 ft | 15 kts | 214° |
| 2026-05-05 00:13 | 44.86880 | -63.52748 | 461 ft | 16 kts | 216° |
| 2026-05-05 00:13 | 44.86796 | -63.52866 | 454 ft | 19 kts | 229° |
| 2026-05-05 00:14 | 44.86724 | -63.53016 | 448 ft | 13 kts | 277° |
| 2026-05-05 00:14 | 44.86769 | -63.53112 | 449 ft | 12 kts | 310° |
| 2026-05-05 00:14 | 44.86814 | -63.53212 | 449 ft | 8 kts | 266° |
| 2026-05-05 00:14 | 44.86782 | -63.53263 | 448 ft | 7 kts | 213° |
| 2026-05-05 00:15 | 44.86759 | -63.53289 | 447 ft | 0 kts | 218° |